Share

Bangkok, Thailand

6:12 PM ICT on April 24, 2014 (GMT +0700)
APRSWXNET Bangkok TH (MAR699) Elev 9 ft | 13.75 °N, 100.70 °E | Change Station

Current weather conditions updated 931 days ago

Mostly Cloudy
Mostly Cloudy
90 °F
Feels Like 97 °F
N
15
Wind Variable Wind from South
Gusts mph
Sunrise 5:59 AM
Sunset 6:31 PM
Moon Waning Crescent

Tomorrow is forecast to be nearly the same temperature as today.

Pressure 29.71 in
Visibility 6.2 miles
Clouds Few 2500 ft
Mostly Cloudy 30000 ft
Heat Index 97 °F
Dew Point 73 °F
Humidity 57%
Rainfall 3.66 in
Snow Depth Not available.
UV 0 out of 16
Pollen Not available.
Air Quality Not available.
Flu Activity Not available.
METAR VTBD 241100Z 21013KT 9999 FEW025 BKN300 32/26 Q1006 NOSIG

More Conditions Fewer Conditions

Pressure 29.71 in
Visibility 6.2 miles
Clouds Few 2500 ft
Mostly Cloudy 30000 ft
Heat Index 97 °F
Dew Point 73 °F
Humidity 57%
Rainfall 3.66 in
Snow Depth Not available.
UV 0 out of 16
Pollen Not available.
Air Quality Not available.
Flu Activity Not available.
METAR VTBD 241100Z 21013KT 9999 FEW025 BKN300 32/26 Q1006 NOSIG

More Conditions Fewer Conditions

10-Day Weather Forecast

Almanac

Astronomy

Apr. 24, 2014 Rise Set
Actual Time 5:59 AM ICT 6:31 PM ICT
Civil Twilight 5:37 AM ICT 6:53 PM ICT
Nautical Twilight 5:11 AM ICT 7:19 PM ICT
Astronomical Twilight 4:45 AM ICT 7:45 PM ICT
Moon 1:54 AM ICT 2:02 PM ICT
Length of Visible Light 13h 16m
Length of Day
12h 32m
Tomorrow will be 0m 41s longer.
Waning Crescent, 26% of the Moon is Illuminated
Today
Waning Crescent
Apr 29
New
May 6
First Quarter
May 14
Full
May 21
Last Quarter

Yesterday's Extremes

Country Highs Country Lows

Community

  • Stacked
    Stacked
  • clouds approaching Red Sox Nation
    clouds approaching Red Sox Nation
  • Balance
    Balance
  • Nestled In
    Nestled In
  • Stunning Sunrise
    Stunning Sunrise

WunderPhotos

Upload Photos

1,704,584 photos uploaded!

WunderBlogs® & News

Nearby

Snow Depth

Not available.

Coastal Water Temperatures

Place Temperature
No Stations Reporting

Earthquake Activity

City Distance Mag. Time & Date
No recent earthquake activity has been reported nearby.
Minimum magnitude displayed is 2.5.

Nearby Weather Stations

Station Location Temp. Heat Index Dew Point Humidity Wind Precip. Elev Updated Type
Dokmai, Pravet, Bangkok 88.7 °F 100 °F 76 °F 66% SSW  at  5.0 mph 0.00 in / hr 10 ft 6:12 PM ICT Rapid Fire
Patumwan Demonstration School, Bangkok 88.4 °F 106 °F 80 °F 77% WSW  at  8.0 mph 0.00 in / hr 46 ft 5:58 PM ICT Normal
Khu Khot, Pathum Thani 91.0 °F 108 °F 80 °F 69% North  at  3.8 mph 0.00 in / hr 15 ft 6:11 PM ICT Rapid Fire

Show More Stations Show Fewer Stations

What do you think?

We're not finished. Please let us know what you like, what you don't like, and what you are still missing.